sensor_id;sensor_type;location;lat;lon;timestamp;P1;durP1;ratioP1;P2;durP2;ratioP2
45867;SDS011;31582;45.490;7.860;2023-02-11T00:00:17;3.05;;;2.95;;
45867;SDS011;31582;45.490;7.860;2023-02-11T00:02:44;3.10;;;3.00;;
45867;SDS011;31582;45.490;7.860;2023-02-11T00:05:13;3.05;;;2.95;;
45867;SDS011;31582;45.490;7.860;2023-02-11T00:07:41;2.97;;;2.87;;
45867;SDS011;31582;45.490;7.860;2023-02-11T00:10:08;3.08;;;2.97;;
45867;SDS011;31582;45.490;7.860;2023-02-11T00:12:35;3.35;;;3.25;;
45867;SDS011;31582;45.490;7.860;2023-02-11T00:15:04;3.10;;;3.00;;
45867;SDS011;31582;45.490;7.860;2023-02-11T00:17:32;3.30;;;3.10;;
45867;SDS011;31582;45.490;7.860;2023-02-11T00:19:59;3.63;;;3.42;;
45867;SDS011;31582;45.490;7.860;2023-02-11T00:22:26;3.30;;;3.10;;
45867;SDS011;31582;45.490;7.860;2023-02-11T00:24:53;3.35;;;3.25;;
45867;SDS011;31582;45.490;7.860;2023-02-11T00:27:22;3.22;;;3.13;;
45867;SDS011;31582;45.490;7.860;2023-02-11T00:29:49;3.55;;;3.40;;
45867;SDS011;31582;45.490;7.860;2023-02-11T00:32:16;3.70;;;3.50;;
45867;SDS011;31582;45.490;7.860;2023-02-11T00:34:42;3.35;;;3.25;;
45867;SDS011;31582;45.490;7.860;2023-02-11T00:37:09;3.30;;;3.20;;
45867;SDS011;31582;45.490;7.860;2023-02-11T00:39:37;3.47;;;3.38;;
45867;SDS011;31582;45.490;7.860;2023-02-11T00:42:04;3.20;;;3.10;;
45867;SDS011;31582;45.490;7.860;2023-02-11T00:44:31;3.55;;;3.40;;
45867;SDS011;31582;45.490;7.860;2023-02-11T00:46:58;3.15;;;3.05;;
45867;SDS011;31582;45.490;7.860;2023-02-11T00:49:24;3.63;;;3.45;;
45867;SDS011;31582;45.490;7.860;2023-02-11T00:51:51;3.47;;;3.33;;
45867;SDS011;31582;45.490;7.860;2023-02-11T00:54:18;4.40;;;4.15;;
45867;SDS011;31582;45.490;7.860;2023-02-11T00:56:45;3.97;;;3.77;;
45867;SDS011;31582;45.490;7.860;2023-02-11T00:59:12;3.70;;;3.60;;
45867;SDS011;31582;45.490;7.860;2023-02-11T01:01:39;4.00;;;3.80;;
45867;SDS011;31582;45.490;7.860;2023-02-11T01:04:06;4.28;;;4.07;;
45867;SDS011;31582;45.490;7.860;2023-02-11T01:06:32;3.28;;;3.17;;
45867;SDS011;31582;45.490;7.860;2023-02-11T01:08:59;3.50;;;3.30;;
45867;SDS011;31582;45.490;7.860;2023-02-11T01:11:26;3.70;;;3.50;;
45867;SDS011;31582;45.490;7.860;2023-02-11T01:13:53;3.03;;;2.92;;
45867;SDS011;31582;45.490;7.860;2023-02-11T01:16:20;3.33;;;3.22;;
45867;SDS011;31582;45.490;7.860;2023-02-11T01:18:47;2.80;;;2.70;;
45867;SDS011;31582;45.490;7.860;2023-02-11T01:21:14;3.10;;;3.00;;
45867;SDS011;31582;45.490;7.860;2023-02-11T01:23:41;3.50;;;3.30;;
45867;SDS011;31582;45.490;7.860;2023-02-11T01:26:08;3.20;;;3.10;;
45867;SDS011;31582;45.490;7.860;2023-02-11T01:28:35;3.13;;;3.03;;
45867;SDS011;31582;45.490;7.860;2023-02-11T01:31:02;3.30;;;3.20;;
45867;SDS011;31582;45.490;7.860;2023-02-11T01:33:32;3.83;;;3.63;;
45867;SDS011;31582;45.490;7.860;2023-02-11T01:35:59;3.53;;;3.33;;
45867;SDS011;31582;45.490;7.860;2023-02-11T01:38:30;3.40;;;3.30;;
45867;SDS011;31582;45.490;7.860;2023-02-11T01:41:05;3.60;;;3.40;;
45867;SDS011;31582;45.490;7.860;2023-02-11T01:43:35;3.38;;;3.17;;
45867;SDS011;31582;45.490;7.860;2023-02-11T01:46:12;3.58;;;3.38;;
45867;SDS011;31582;45.490;7.860;2023-02-11T01:49:05;3.05;;;2.95;;
45867;SDS011;31582;45.490;7.860;2023-02-11T01:54:08;3.03;;;2.92;;
45867;SDS011;31582;45.490;7.860;2023-02-11T01:56:55;3.33;;;3.22;;
45867;SDS011;31582;45.490;7.860;2023-02-11T01:59:47;3.55;;;3.35;;
45867;SDS011;31582;45.490;7.860;2023-02-11T02:08:04;3.58;;;3.47;;
45867;SDS011;31582;45.490;7.860;2023-02-11T02:10:33;3.45;;;3.25;;
45867;SDS011;31582;45.490;7.860;2023-02-11T02:13:02;3.80;;;3.60;;
45867;SDS011;31582;45.490;7.860;2023-02-11T02:15:29;3.88;;;3.67;;
45867;SDS011;31582;45.490;7.860;2023-02-11T02:21:02;3.30;;;3.20;;
45867;SDS011;31582;45.490;7.860;2023-02-11T02:34:40;3.42;;;3.33;;
45867;SDS011;31582;45.490;7.860;2023-02-11T02:37:33;3.80;;;3.60;;
45867;SDS011;31582;45.490;7.860;2023-02-11T02:40:11;4.37;;;4.07;;
45867;SDS011;31582;45.490;7.860;2023-02-11T02:42:52;4.03;;;3.83;;
45867;SDS011;31582;45.490;7.860;2023-02-11T02:45:21;3.55;;;3.45;;
45867;SDS011;31582;45.490;7.860;2023-02-11T02:47:48;4.25;;;4.05;;
45867;SDS011;31582;45.490;7.860;2023-02-11T02:50:15;4.40;;;4.20;;
45867;SDS011;31582;45.490;7.860;2023-02-11T02:52:51;4.00;;;3.80;;
45867;SDS011;31582;45.490;7.860;2023-02-11T03:03:15;4.25;;;4.05;;
45867;SDS011;31582;45.490;7.860;2023-02-11T03:08:42;3.92;;;3.72;;
45867;SDS011;31582;45.490;7.860;2023-02-11T03:11:15;3.60;;;3.40;;
45867;SDS011;31582;45.490;7.860;2023-02-11T03:13:45;3.70;;;3.50;;
45867;SDS011;31582;45.490;7.860;2023-02-11T03:16:14;3.47;;;3.38;;
45867;SDS011;31582;45.490;7.860;2023-02-11T03:18:47;3.58;;;3.47;;
45867;SDS011;31582;45.490;7.860;2023-02-11T03:21:16;3.80;;;3.60;;
45867;SDS011;31582;45.490;7.860;2023-02-11T03:23:54;3.85;;;3.65;;
45867;SDS011;31582;45.490;7.860;2023-02-11T03:26:29;3.85;;;3.65;;
45867;SDS011;31582;45.490;7.860;2023-02-11T03:29:09;3.53;;;3.33;;
45867;SDS011;31582;45.490;7.860;2023-02-11T03:31:59;3.78;;;3.58;;
45867;SDS011;31582;45.490;7.860;2023-02-11T03:37:29;3.40;;;3.30;;
45867;SDS011;31582;45.490;7.860;2023-02-11T03:40:00;4.97;;;4.68;;
45867;SDS011;31582;45.490;7.860;2023-02-11T03:42:52;5.47;;;5.18;;
45867;SDS011;31582;45.490;7.860;2023-02-11T03:45:25;4.40;;;4.20;;
45867;SDS011;31582;45.490;7.860;2023-02-11T03:47:55;5.83;;;5.53;;
45867;SDS011;31582;45.490;7.860;2023-02-11T03:50:30;6.30;;;5.90;;
45867;SDS011;31582;45.490;7.860;2023-02-11T03:52:59;4.97;;;4.78;;
45867;SDS011;31582;45.490;7.860;2023-02-11T03:55:28;4.60;;;4.30;;
45867;SDS011;31582;45.490;7.860;2023-02-11T03:57:58;4.70;;;4.50;;
45867;SDS011;31582;45.490;7.860;2023-02-11T04:00:29;4.15;;;3.95;;
45867;SDS011;31582;45.490;7.860;2023-02-11T04:03:02;4.40;;;4.20;;
45867;SDS011;31582;45.490;7.860;2023-02-11T04:05:29;5.10;;;4.80;;
45867;SDS011;31582;45.490;7.860;2023-02-11T04:07:57;4.80;;;4.60;;
45867;SDS011;31582;45.490;7.860;2023-02-11T04:10:24;4.63;;;4.37;;
45867;SDS011;31582;45.490;7.860;2023-02-11T04:12:51;4.57;;;4.38;;
45867;SDS011;31582;45.490;7.860;2023-02-11T04:15:18;4.25;;;4.05;;
45867;SDS011;31582;45.490;7.860;2023-02-11T04:17:45;3.83;;;3.63;;
45867;SDS011;31582;45.490;7.860;2023-02-11T04:20:12;4.00;;;3.80;;
45867;SDS011;31582;45.490;7.860;2023-02-11T04:22:39;3.97;;;3.78;;
45867;SDS011;31582;45.490;7.860;2023-02-11T04:25:06;3.92;;;3.72;;
45867;SDS011;31582;45.490;7.860;2023-02-11T04:27:34;3.92;;;3.72;;
45867;SDS011;31582;45.490;7.860;2023-02-11T04:30:02;3.58;;;3.40;;
45867;SDS011;31582;45.490;7.860;2023-02-11T04:32:30;4.20;;;4.00;;
45867;SDS011;31582;45.490;7.860;2023-02-11T04:34:56;4.07;;;3.88;;
45867;SDS011;31582;45.490;7.860;2023-02-11T04:37:23;4.00;;;3.80;;
45867;SDS011;31582;45.490;7.860;2023-02-11T04:39:50;3.97;;;3.78;;
45867;SDS011;31582;45.490;7.860;2023-02-11T04:42:17;4.07;;;3.88;;
45867;SDS011;31582;45.490;7.860;2023-02-11T04:44:44;4.20;;;4.00;;
45867;SDS011;31582;45.490;7.860;2023-02-11T04:47:10;3.58;;;3.38;;
45867;SDS011;31582;45.490;7.860;2023-02-11T04:49:40;3.38;;;3.20;;
45867;SDS011;31582;45.490;7.860;2023-02-11T04:52:07;3.53;;;3.33;;
45867;SDS011;31582;45.490;7.860;2023-02-11T04:54:34;3.80;;;3.50;;
45867;SDS011;31582;45.490;7.860;2023-02-11T04:57:01;3.85;;;3.65;;
45867;SDS011;31582;45.490;7.860;2023-02-11T04:59:28;3.75;;;3.55;;
45867;SDS011;31582;45.490;7.860;2023-02-11T05:01:55;3.50;;;3.30;;
45867;SDS011;31582;45.490;7.860;2023-02-11T05:04:22;3.65;;;3.45;;
45867;SDS011;31582;45.490;7.860;2023-02-11T05:06:49;3.17;;;3.07;;
45867;SDS011;31582;45.490;7.860;2023-02-11T05:09:16;3.67;;;3.47;;
45867;SDS011;31582;45.490;7.860;2023-02-11T05:11:43;3.60;;;3.40;;
45867;SDS011;31582;45.490;7.860;2023-02-11T05:14:10;3.38;;;3.17;;
45867;SDS011;31582;45.490;7.860;2023-02-11T05:16:37;3.28;;;3.10;;
45867;SDS011;31582;45.490;7.860;2023-02-11T05:19:04;3.70;;;3.50;;
45867;SDS011;31582;45.490;7.860;2023-02-11T05:21:31;2.92;;;2.83;;
45867;SDS011;31582;45.490;7.860;2023-02-11T05:23:58;3.65;;;3.45;;
45867;SDS011;31582;45.490;7.860;2023-02-11T05:26:24;3.20;;;3.10;;
45867;SDS011;31582;45.490;7.860;2023-02-11T05:28:51;3.70;;;3.50;;
45867;SDS011;31582;45.490;7.860;2023-02-11T05:31:18;3.42;;;3.25;;
45867;SDS011;31582;45.490;7.860;2023-02-11T05:33:45;3.65;;;3.45;;
45867;SDS011;31582;45.490;7.860;2023-02-11T05:36:12;3.47;;;3.33;;
45867;SDS011;31582;45.490;7.860;2023-02-11T05:38:39;3.13;;;3.03;;
45867;SDS011;31582;45.490;7.860;2023-02-11T05:41:08;3.50;;;3.40;;
45867;SDS011;31582;45.490;7.860;2023-02-11T05:43:35;3.55;;;3.35;;
45867;SDS011;31582;45.490;7.860;2023-02-11T05:46:03;3.38;;;3.25;;
45867;SDS011;31582;45.490;7.860;2023-02-11T05:48:31;4.00;;;3.80;;
45867;SDS011;31582;45.490;7.860;2023-02-11T05:50:58;3.42;;;3.33;;
45867;SDS011;31582;45.490;7.860;2023-02-11T05:53:26;4.07;;;3.88;;
45867;SDS011;31582;45.490;7.860;2023-02-11T05:55:53;3.90;;;3.70;;
45867;SDS011;31582;45.490;7.860;2023-02-11T05:58:19;3.63;;;3.42;;
45867;SDS011;31582;45.490;7.860;2023-02-11T06:00:46;3.22;;;3.13;;
45867;SDS011;31582;45.490;7.860;2023-02-11T06:03:13;3.72;;;3.53;;
45867;SDS011;31582;45.490;7.860;2023-02-11T06:05:41;3.90;;;3.70;;
45867;SDS011;31582;45.490;7.860;2023-02-11T06:08:09;3.88;;;3.67;;
45867;SDS011;31582;45.490;7.860;2023-02-11T06:10:36;3.70;;;3.50;;
45867;SDS011;31582;45.490;7.860;2023-02-11T06:13:03;3.30;;;3.20;;
45867;SDS011;31582;45.490;7.860;2023-02-11T06:15:30;3.60;;;3.45;;
45867;SDS011;31582;45.490;7.860;2023-02-11T06:17:57;3.30;;;3.20;;
45867;SDS011;31582;45.490;7.860;2023-02-11T06:20:24;3.58;;;3.47;;
45867;SDS011;31582;45.490;7.860;2023-02-11T06:22:51;3.20;;;3.10;;
45867;SDS011;31582;45.490;7.860;2023-02-11T06:25:18;3.85;;;3.65;;
45867;SDS011;31582;45.490;7.860;2023-02-11T06:27:45;3.53;;;3.33;;
45867;SDS011;31582;45.490;7.860;2023-02-11T06:30:12;3.63;;;3.42;;
45867;SDS011;31582;45.490;7.860;2023-02-11T06:32:39;3.53;;;3.33;;
45867;SDS011;31582;45.490;7.860;2023-02-11T06:35:10;3.25;;;3.15;;
45867;SDS011;31582;45.490;7.860;2023-02-11T06:37:39;3.33;;;3.22;;
45867;SDS011;31582;45.490;7.860;2023-02-11T06:40:07;3.17;;;3.03;;
45867;SDS011;31582;45.490;7.860;2023-02-11T06:42:35;3.08;;;2.92;;
45867;SDS011;31582;45.490;7.860;2023-02-11T06:45:04;3.35;;;3.25;;
45867;SDS011;31582;45.490;7.860;2023-02-11T06:47:34;3.20;;;3.10;;
45867;SDS011;31582;45.490;7.860;2023-02-11T06:50:01;3.45;;;3.25;;
45867;SDS011;31582;45.490;7.860;2023-02-11T06:52:28;3.28;;;3.17;;
45867;SDS011;31582;45.490;7.860;2023-02-11T06:54:55;3.60;;;3.40;;
45867;SDS011;31582;45.490;7.860;2023-02-11T06:57:22;3.50;;;3.30;;
45867;SDS011;31582;45.490;7.860;2023-02-11T06:59:49;3.55;;;3.35;;
45867;SDS011;31582;45.490;7.860;2023-02-11T07:02:16;3.80;;;3.60;;
45867;SDS011;31582;45.490;7.860;2023-02-11T07:04:46;3.20;;;3.10;;
45867;SDS011;31582;45.490;7.860;2023-02-11T07:07:13;3.42;;;3.30;;
45867;SDS011;31582;45.490;7.860;2023-02-11T07:09:40;3.38;;;3.28;;
45867;SDS011;31582;45.490;7.860;2023-02-11T07:12:08;3.72;;;3.55;;
45867;SDS011;31582;45.490;7.860;2023-02-11T07:14:36;3.45;;;3.35;;
45867;SDS011;31582;45.490;7.860;2023-02-11T07:17:03;3.42;;;3.25;;
45867;SDS011;31582;45.490;7.860;2023-02-11T07:19:30;3.35;;;3.15;;
45867;SDS011;31582;45.490;7.860;2023-02-11T07:21:57;2.87;;;2.77;;
45867;SDS011;31582;45.490;7.860;2023-02-11T07:24:24;3.30;;;3.15;;
45867;SDS011;31582;45.490;7.860;2023-02-11T07:26:51;3.53;;;3.42;;
45867;SDS011;31582;45.490;7.860;2023-02-11T07:29:19;3.50;;;3.40;;
45867;SDS011;31582;45.490;7.860;2023-02-11T07:31:46;4.10;;;3.90;;
45867;SDS011;31582;45.490;7.860;2023-02-11T07:34:13;3.55;;;3.35;;
45867;SDS011;31582;45.490;7.860;2023-02-11T07:36:40;4.20;;;3.80;;
45867;SDS011;31582;45.490;7.860;2023-02-11T07:39:09;3.90;;;3.70;;
45867;SDS011;31582;45.490;7.860;2023-02-11T07:41:35;3.60;;;3.50;;
45867;SDS011;31582;45.490;7.860;2023-02-11T07:44:03;3.70;;;3.50;;
45867;SDS011;31582;45.490;7.860;2023-02-11T07:46:31;4.40;;;4.20;;
45867;SDS011;31582;45.490;7.860;2023-02-11T07:48:59;3.97;;;3.78;;
45867;SDS011;31582;45.490;7.860;2023-02-11T07:51:27;4.38;;;4.18;;
45867;SDS011;31582;45.490;7.860;2023-02-11T07:53:56;4.07;;;3.75;;
45867;SDS011;31582;45.490;7.860;2023-02-11T07:56:25;4.65;;;4.35;;
45867;SDS011;31582;45.490;7.860;2023-02-11T07:58:53;3.83;;;3.63;;
45867;SDS011;31582;45.490;7.860;2023-02-11T08:01:23;4.32;;;4.13;;
45867;SDS011;31582;45.490;7.860;2023-02-11T08:03:56;3.80;;;3.60;;
45867;SDS011;31582;45.490;7.860;2023-02-11T08:06:26;3.73;;;3.63;;
45867;SDS011;31582;45.490;7.860;2023-02-11T08:08:54;3.95;;;3.78;;
45867;SDS011;31582;45.490;7.860;2023-02-11T08:11:25;4.20;;;4.00;;
45867;SDS011;31582;45.490;7.860;2023-02-11T08:13:54;3.92;;;3.70;;
45867;SDS011;31582;45.490;7.860;2023-02-11T08:16:23;3.92;;;3.72;;
45867;SDS011;31582;45.490;7.860;2023-02-11T08:18:55;3.85;;;3.65;;
45867;SDS011;31582;45.490;7.860;2023-02-11T08:21:23;3.90;;;3.70;;
45867;SDS011;31582;45.490;7.860;2023-02-11T08:23:51;3.95;;;3.65;;
45867;SDS011;31582;45.490;7.860;2023-02-11T08:26:19;4.13;;;3.92;;
45867;SDS011;31582;45.490;7.860;2023-02-11T08:28:48;3.57;;;3.37;;
45867;SDS011;31582;45.490;7.860;2023-02-11T08:31:18;4.30;;;4.10;;
45867;SDS011;31582;45.490;7.860;2023-02-11T08:33:50;4.30;;;4.10;;
45867;SDS011;31582;45.490;7.860;2023-02-11T08:36:19;4.78;;;4.50;;
45867;SDS011;31582;45.490;7.860;2023-02-11T08:38:48;4.75;;;4.55;;
45867;SDS011;31582;45.490;7.860;2023-02-11T08:41:16;4.67;;;4.47;;
45867;SDS011;31582;45.490;7.860;2023-02-11T08:43:43;4.85;;;4.55;;
45867;SDS011;31582;45.490;7.860;2023-02-11T08:46:12;4.45;;;4.25;;
45867;SDS011;31582;45.490;7.860;2023-02-11T08:48:41;4.78;;;4.47;;
45867;SDS011;31582;45.490;7.860;2023-02-11T08:51:09;4.30;;;4.00;;
45867;SDS011;31582;45.490;7.860;2023-02-11T08:53:39;4.28;;;4.07;;
45867;SDS011;31582;45.490;7.860;2023-02-11T08:56:07;4.10;;;3.90;;
45867;SDS011;31582;45.490;7.860;2023-02-11T08:58:38;3.93;;;3.73;;
45867;SDS011;31582;45.490;7.860;2023-02-11T09:01:12;3.38;;;3.28;;
45867;SDS011;31582;45.490;7.860;2023-02-11T09:03:41;3.65;;;3.45;;
45867;SDS011;31582;45.490;7.860;2023-02-11T09:06:08;4.07;;;3.88;;
45867;SDS011;31582;45.490;7.860;2023-02-11T09:08:37;4.20;;;4.00;;
45867;SDS011;31582;45.490;7.860;2023-02-11T09:11:11;3.60;;;3.40;;
45867;SDS011;31582;45.490;7.860;2023-02-11T09:13:39;3.70;;;3.50;;
45867;SDS011;31582;45.490;7.860;2023-02-11T09:16:12;4.03;;;3.83;;
45867;SDS011;31582;45.490;7.860;2023-02-11T09:18:46;3.40;;;3.20;;
45867;SDS011;31582;45.490;7.860;2023-02-11T09:21:14;3.63;;;3.35;;
45867;SDS011;31582;45.490;7.860;2023-02-11T09:23:42;3.60;;;3.40;;
45867;SDS011;31582;45.490;7.860;2023-02-11T09:26:12;3.70;;;3.50;;
45867;SDS011;31582;45.490;7.860;2023-02-11T09:28:44;3.47;;;3.28;;
45867;SDS011;31582;45.490;7.860;2023-02-11T09:31:13;3.85;;;3.55;;
45867;SDS011;31582;45.490;7.860;2023-02-11T09:33:43;3.10;;;2.90;;
45867;SDS011;31582;45.490;7.860;2023-02-11T09:36:15;2.80;;;2.70;;
45867;SDS011;31582;45.490;7.860;2023-02-11T09:38:50;3.25;;;3.15;;
45867;SDS011;31582;45.490;7.860;2023-02-11T09:43:57;2.95;;;2.85;;
45867;SDS011;31582;45.490;7.860;2023-02-11T09:46:31;2.70;;;2.60;;
45867;SDS011;31582;45.490;7.860;2023-02-11T09:49:05;3.38;;;3.17;;
45867;SDS011;31582;45.490;7.860;2023-02-11T09:54:28;2.92;;;2.80;;
45867;SDS011;31582;45.490;7.860;2023-02-11T09:57:03;2.27;;;2.10;;
45867;SDS011;31582;45.490;7.860;2023-02-11T09:59:31;2.35;;;2.25;;
45867;SDS011;31582;45.490;7.860;2023-02-11T10:02:02;2.22;;;2.13;;
45867;SDS011;31582;45.490;7.860;2023-02-11T10:07:25;2.08;;;1.98;;
45867;SDS011;31582;45.490;7.860;2023-02-11T10:10:32;2.13;;;2.03;;
45867;SDS011;31582;45.490;7.860;2023-02-11T10:15:44;1.92;;;1.83;;
45867;SDS011;31582;45.490;7.860;2023-02-11T10:21:38;1.80;;;1.70;;
45867;SDS011;31582;45.490;7.860;2023-02-11T10:24:27;2.20;;;2.10;;
45867;SDS011;31582;45.490;7.860;2023-02-11T10:26:55;2.03;;;1.92;;
45867;SDS011;31582;45.490;7.860;2023-02-11T10:29:30;1.77;;;1.67;;
45867;SDS011;31582;45.490;7.860;2023-02-11T10:31:58;2.35;;;2.25;;
45867;SDS011;31582;45.490;7.860;2023-02-11T10:34:28;2.45;;;2.30;;
45867;SDS011;31582;45.490;7.860;2023-02-11T10:36:55;2.72;;;2.63;;
45867;SDS011;31582;45.490;7.860;2023-02-11T10:39:24;3.30;;;3.10;;
45867;SDS011;31582;45.490;7.860;2023-02-11T10:41:56;2.70;;;2.60;;
45867;SDS011;31582;45.490;7.860;2023-02-11T10:44:37;3.08;;;2.88;;
45867;SDS011;31582;45.490;7.860;2023-02-11T10:47:27;3.03;;;2.92;;
45867;SDS011;31582;45.490;7.860;2023-02-11T10:49:58;3.00;;;2.80;;
45867;SDS011;31582;45.490;7.860;2023-02-11T10:52:29;2.65;;;2.55;;
45867;SDS011;31582;45.490;7.860;2023-02-11T10:57:36;2.85;;;2.65;;
45867;SDS011;31582;45.490;7.860;2023-02-11T11:03:16;2.72;;;2.63;;
45867;SDS011;31582;45.490;7.860;2023-02-11T11:05:49;2.28;;;2.17;;
45867;SDS011;31582;45.490;7.860;2023-02-11T11:08:18;2.45;;;2.25;;
45867;SDS011;31582;45.490;7.860;2023-02-11T11:10:46;2.05;;;1.95;;
45867;SDS011;31582;45.490;7.860;2023-02-11T11:16:37;2.10;;;2.00;;
45867;SDS011;31582;45.490;7.860;2023-02-11T11:26:53;1.85;;;1.75;;
45867;SDS011;31582;45.490;7.860;2023-02-11T11:29:25;1.58;;;1.48;;
45867;SDS011;31582;45.490;7.860;2023-02-11T11:32:04;1.77;;;1.67;;
45867;SDS011;31582;45.490;7.860;2023-02-11T11:34:37;1.50;;;1.40;;
45867;SDS011;31582;45.490;7.860;2023-02-11T11:39:58;1.75;;;1.65;;
45867;SDS011;31582;45.490;7.860;2023-02-11T11:42:27;1.98;;;1.88;;
45867;SDS011;31582;45.490;7.860;2023-02-11T11:44:57;1.90;;;1.80;;
45867;SDS011;31582;45.490;7.860;2023-02-11T11:47:31;1.67;;;1.60;;
45867;SDS011;31582;45.490;7.860;2023-02-11T11:50:14;1.80;;;1.70;;
45867;SDS011;31582;45.490;7.860;2023-02-11T11:53:00;1.42;;;1.40;;
45867;SDS011;31582;45.490;7.860;2023-02-11T11:55:44;1.60;;;1.50;;
45867;SDS011;31582;45.490;7.860;2023-02-11T11:58:30;1.80;;;1.70;;
45867;SDS011;31582;45.490;7.860;2023-02-11T12:14:29;1.50;;;1.40;;
45867;SDS011;31582;45.490;7.860;2023-02-11T12:17:17;1.50;;;1.40;;
45867;SDS011;31582;45.490;7.860;2023-02-11T12:30:32;1.50;;;1.40;;
45867;SDS011;31582;45.490;7.860;2023-02-11T12:36:11;1.30;;;1.30;;
45867;SDS011;31582;45.490;7.860;2023-02-11T12:38:52;1.77;;;1.50;;
45867;SDS011;31582;45.490;7.860;2023-02-11T12:58:42;1.90;;;1.80;;
45867;SDS011;31582;45.490;7.860;2023-02-11T13:01:19;1.65;;;1.55;;
45867;SDS011;31582;45.490;7.860;2023-02-11T13:06:39;1.50;;;1.40;;
45867;SDS011;31582;45.490;7.860;2023-02-11T13:09:19;1.50;;;1.40;;
45867;SDS011;31582;45.490;7.860;2023-02-11T13:11:53;1.75;;;1.65;;
45867;SDS011;31582;45.490;7.860;2023-02-11T13:14:24;1.90;;;1.80;;
45867;SDS011;31582;45.490;7.860;2023-02-11T13:16:55;1.92;;;1.83;;
45867;SDS011;31582;45.490;7.860;2023-02-11T13:19:25;1.80;;;1.70;;
45867;SDS011;31582;45.490;7.860;2023-02-11T13:25:13;1.85;;;1.75;;
45867;SDS011;31582;45.490;7.860;2023-02-11T13:27:57;1.90;;;1.80;;
45867;SDS011;31582;45.490;7.860;2023-02-11T13:30:30;2.00;;;1.90;;
45867;SDS011;31582;45.490;7.860;2023-02-11T13:33:02;1.70;;;1.60;;
45867;SDS011;31582;45.490;7.860;2023-02-11T13:35:35;1.75;;;1.65;;
45867;SDS011;31582;45.490;7.860;2023-02-11T13:40:57;1.65;;;1.55;;
45867;SDS011;31582;45.490;7.860;2023-02-11T13:43:25;1.65;;;1.60;;
45867;SDS011;31582;45.490;7.860;2023-02-11T13:48:32;1.55;;;1.45;;
45867;SDS011;31582;45.490;7.860;2023-02-11T13:51:05;1.77;;;1.67;;
45867;SDS011;31582;45.490;7.860;2023-02-11T13:53:51;1.77;;;1.67;;
45867;SDS011;31582;45.490;7.860;2023-02-11T13:56:23;2.05;;;1.95;;
45867;SDS011;31582;45.490;7.860;2023-02-11T13:58:59;1.90;;;1.80;;
45867;SDS011;31582;45.490;7.860;2023-02-11T14:04:27;2.00;;;1.90;;
45867;SDS011;31582;45.490;7.860;2023-02-11T14:07:27;2.10;;;2.00;;
45867;SDS011;31582;45.490;7.860;2023-02-11T14:16:18;2.10;;;2.00;;
45867;SDS011;31582;45.490;7.860;2023-02-11T14:19:03;2.00;;;1.90;;
45867;SDS011;31582;45.490;7.860;2023-02-11T14:21:35;1.55;;;1.45;;
45867;SDS011;31582;45.490;7.860;2023-02-11T14:32:43;1.67;;;1.58;;
45867;SDS011;31582;45.490;7.860;2023-02-11T14:35:20;1.60;;;1.50;;
45867;SDS011;31582;45.490;7.860;2023-02-11T14:40:31;1.90;;;1.80;;
45867;SDS011;31582;45.490;7.860;2023-02-11T14:43:11;1.88;;;1.77;;
45867;SDS011;31582;45.490;7.860;2023-02-11T14:45:43;1.70;;;1.60;;
45867;SDS011;31582;45.490;7.860;2023-02-11T14:48:18;1.40;;;1.40;;
45867;SDS011;31582;45.490;7.860;2023-02-11T14:50:52;1.80;;;1.70;;
45867;SDS011;31582;45.490;7.860;2023-02-11T14:53:27;1.80;;;1.70;;
45867;SDS011;31582;45.490;7.860;2023-02-11T14:55:57;2.40;;;1.70;;
45867;SDS011;31582;45.490;7.860;2023-02-11T15:00:54;1.70;;;1.60;;
45867;SDS011;31582;45.490;7.860;2023-02-11T15:03:37;1.70;;;1.60;;
45867;SDS011;31582;45.490;7.860;2023-02-11T15:08:46;1.63;;;1.52;;
45867;SDS011;31582;45.490;7.860;2023-02-11T15:11:17;1.60;;;1.50;;
45867;SDS011;31582;45.490;7.860;2023-02-11T15:13:46;1.45;;;1.45;;
45867;SDS011;31582;45.490;7.860;2023-02-11T15:16:16;1.40;;;1.40;;
45867;SDS011;31582;45.490;7.860;2023-02-11T15:18:49;1.58;;;1.58;;
45867;SDS011;31582;45.490;7.860;2023-02-11T15:21:27;1.90;;;1.80;;
45867;SDS011;31582;45.490;7.860;2023-02-11T15:23:58;2.00;;;1.90;;
45867;SDS011;31582;45.490;7.860;2023-02-11T15:26:25;1.65;;;1.55;;
45867;SDS011;31582;45.490;7.860;2023-02-11T15:28:54;1.58;;;1.48;;
45867;SDS011;31582;45.490;7.860;2023-02-11T15:31:24;1.60;;;1.50;;
45867;SDS011;31582;45.490;7.860;2023-02-11T15:33:52;1.73;;;1.63;;
45867;SDS011;31582;45.490;7.860;2023-02-11T15:36:21;1.80;;;1.70;;
45867;SDS011;31582;45.490;7.860;2023-02-11T15:42:15;1.30;;;1.20;;
45867;SDS011;31582;45.490;7.860;2023-02-11T15:44:47;1.30;;;1.30;;
45867;SDS011;31582;45.490;7.860;2023-02-11T15:47:32;1.80;;;1.50;;
45867;SDS011;31582;45.490;7.860;2023-02-11T15:49:59;1.70;;;1.60;;
45867;SDS011;31582;45.490;7.860;2023-02-11T15:52:26;1.20;;;1.20;;
45867;SDS011;31582;45.490;7.860;2023-02-11T15:54:54;1.30;;;1.20;;
45867;SDS011;31582;45.490;7.860;2023-02-11T15:57:26;1.20;;;1.20;;
45867;SDS011;31582;45.490;7.860;2023-02-11T15:59:54;1.60;;;1.50;;
45867;SDS011;31582;45.490;7.860;2023-02-11T16:02:31;1.40;;;1.35;;
45867;SDS011;31582;45.490;7.860;2023-02-11T16:05:05;1.25;;;1.20;;
45867;SDS011;31582;45.490;7.860;2023-02-11T16:07:38;1.30;;;1.30;;
45867;SDS011;31582;45.490;7.860;2023-02-11T16:15:49;1.40;;;1.30;;
45867;SDS011;31582;45.490;7.860;2023-02-11T16:18:43;1.30;;;1.20;;
45867;SDS011;31582;45.490;7.860;2023-02-11T16:21:33;1.20;;;1.10;;
45867;SDS011;31582;45.490;7.860;2023-02-11T16:24:14;1.27;;;1.17;;
45867;SDS011;31582;45.490;7.860;2023-02-11T16:26:48;1.10;;;1.10;;
45867;SDS011;31582;45.490;7.860;2023-02-11T16:29:31;1.05;;;1.05;;
45867;SDS011;31582;45.490;7.860;2023-02-11T16:32:13;1.00;;;1.00;;
45867;SDS011;31582;45.490;7.860;2023-02-11T16:34:48;1.40;;;1.30;;
45867;SDS011;31582;45.490;7.860;2023-02-11T16:37:16;1.48;;;1.48;;
45867;SDS011;31582;45.490;7.860;2023-02-11T16:39:43;2.30;;;2.10;;
45867;SDS011;31582;45.490;7.860;2023-02-11T16:42:10;1.85;;;1.75;;
45867;SDS011;31582;45.490;7.860;2023-02-11T16:44:37;1.80;;;1.70;;
45867;SDS011;31582;45.490;7.860;2023-02-11T16:47:05;1.90;;;1.80;;
45867;SDS011;31582;45.490;7.860;2023-02-11T16:49:40;1.83;;;1.73;;
45867;SDS011;31582;45.490;7.860;2023-02-11T16:52:11;2.10;;;1.67;;
45867;SDS011;31582;45.490;7.860;2023-02-11T16:54:40;2.13;;;2.03;;
45867;SDS011;31582;45.490;7.860;2023-02-11T16:57:12;2.00;;;1.90;;
45867;SDS011;31582;45.490;7.860;2023-02-11T16:59:41;1.90;;;1.80;;
45867;SDS011;31582;45.490;7.860;2023-02-11T17:02:28;2.28;;;1.70;;
45867;SDS011;31582;45.490;7.860;2023-02-11T17:04:59;1.92;;;1.83;;
45867;SDS011;31582;45.490;7.860;2023-02-11T17:07:28;2.20;;;2.10;;
45867;SDS011;31582;45.490;7.860;2023-02-11T17:09:55;1.90;;;1.80;;
45867;SDS011;31582;45.490;7.860;2023-02-11T17:12:22;2.35;;;2.25;;
45867;SDS011;31582;45.490;7.860;2023-02-11T17:14:53;2.60;;;2.50;;
45867;SDS011;31582;45.490;7.860;2023-02-11T17:17:20;2.60;;;2.40;;
45867;SDS011;31582;45.490;7.860;2023-02-11T17:19:49;2.67;;;2.58;;
45867;SDS011;31582;45.490;7.860;2023-02-11T17:22:16;2.40;;;2.30;;
45867;SDS011;31582;45.490;7.860;2023-02-11T17:24:43;2.30;;;2.20;;
45867;SDS011;31582;45.490;7.860;2023-02-11T17:27:10;2.60;;;2.40;;
45867;SDS011;31582;45.490;7.860;2023-02-11T17:29:38;3.15;;;2.95;;
45867;SDS011;31582;45.490;7.860;2023-02-11T17:32:05;2.75;;;2.55;;
45867;SDS011;31582;45.490;7.860;2023-02-11T17:34:32;2.72;;;2.55;;
45867;SDS011;31582;45.490;7.860;2023-02-11T17:36:59;3.20;;;3.00;;
45867;SDS011;31582;45.490;7.860;2023-02-11T17:39:28;3.03;;;2.83;;
45867;SDS011;31582;45.490;7.860;2023-02-11T17:41:55;3.05;;;2.85;;
45867;SDS011;31582;45.490;7.860;2023-02-11T17:44:22;3.20;;;3.00;;
45867;SDS011;31582;45.490;7.860;2023-02-11T17:46:48;2.95;;;2.75;;
45867;SDS011;31582;45.490;7.860;2023-02-11T17:49:17;3.23;;;3.03;;